Time;durP1;ratioP1;P1;durP2;ratioP2;P2;SDS_P1;SDS_P2;PMS_P1;PMS_P2;Temp;Humidity;BMP_temperature;BMP_pressure;BME280_temperature;BME280_humidity;BME280_pressure;Samples;Min_cycle;Max_cycle;Signal;HPM_P1;HPM_P2
2023/09/24 00:00:41;;;;;;;7.10;4.50;;;;;;;16.98;81.91;99373.85;232704;215;138319;-59
2023/09/24 00:06:11;;;;;;;6.80;4.00;;;;;;;16.98;81.29;99376.25;232654;215;146535;-60
2023/09/24 00:11:17;;;;;;;5.90;3.80;;;;;;;16.93;81.45;99379.54;232688;215;138599;-60
2023/09/24 00:16:25;;;;;;;6.40;3.90;;;;;;;16.87;80.78;99373.01;232675;215;139362;-59
2023/09/24 00:21:30;;;;;;;4.50;3.10;;;;;;;16.81;80.11;99367.98;232875;215;145758;-58
2023/09/24 00:26:36;;;;;;;3.20;2.80;;;;;;;16.74;79.52;99367.03;232688;215;141646;-62
2023/09/24 00:31:43;;;;;;;7.90;3.10;;;;;;;16.70;79.49;99362.73;232800;215;137698;-60
2023/09/24 00:36:50;;;;;;;5.90;3.30;;;;;;;16.66;79.58;99367.32;232621;215;146552;-60
2023/09/24 00:41:58;;;;;;;6.40;3.60;;;;;;;16.57;79.72;99371.50;232785;215;141893;-60
2023/09/24 00:47:04;;;;;;;4.60;3.30;;;;;;;16.46;80.11;99366.31;232706;215;137250;-59
2023/09/24 00:52:11;;;;;;;5.90;2.90;;;;;;;16.40;80.36;99360.21;232907;215;146372;-60
2023/09/24 00:57:20;;;;;;;6.00;3.00;;;;;;;16.36;80.50;99360.17;232575;215;139021;-61
2023/09/24 01:02:23;;;;;;;4.60;3.00;;;;;;;16.37;80.83;99370.11;232715;215;137669;-59
2023/09/24 01:07:31;;;;;;;6.50;3.50;;;;;;;16.40;80.31;99381.68;232579;214;146325;-60
2023/09/24 01:12:39;;;;;;;6.20;3.40;;;;;;;16.41;79.57;99393.61;232528;213;142916;-61
2023/09/24 01:17:45;;;;;;;3.70;3.00;;;;;;;16.38;79.88;99398.29;232627;214;140383;-61
2023/09/24 01:22:51;;;;;;;4.80;2.70;;;;;;;16.32;80.07;99404.31;232517;214;147059;-60
2023/09/24 01:27:54;;;;;;;4.90;2.70;;;;;;;16.26;80.38;99410.16;232674;214;139369;-60
2023/09/24 01:33:02;;;;;;;5.40;3.10;;;;;;;16.25;80.25;99422.04;232513;213;138122;-61
2023/09/24 01:38:09;;;;;;;3.10;2.50;;;;;;;16.26;79.50;99438.42;232477;214;146472;-60
2023/09/24 01:43:15;;;;;;;5.80;2.50;;;;;;;16.20;78.38;99451.08;232506;214;139765;-60
2023/09/24 01:48:20;;;;;;;5.80;2.60;;;;;;;16.14;78.39;99454.42;232563;214;138163;-58
2023/09/24 01:53:26;;;;;;;2.20;1.90;;;;;;;16.08;79.04;99451.13;232514;214;145994;-60
2023/09/24 01:58:37;;;;;;;3.30;2.10;;;;;;;16.05;79.57;99455.69;232696;213;138764;-61
2023/09/24 02:03:46;;;;;;;6.70;2.10;;;;;;;16.07;79.12;99466.46;232597;214;138221;-59
2023/09/24 02:08:52;;;;;;;3.40;2.00;;;;;;;16.07;78.90;99472.54;232531;214;145616;-59
2023/09/24 02:14:00;;;;;;;5.10;2.60;;;;;;;16.03;79.04;99477.83;232597;214;139209;-60
2023/09/24 02:19:06;;;;;;;3.80;2.10;;;;;;;15.96;79.03;99489.81;232507;214;136445;-58
2023/09/24 02:24:13;;;;;;;3.00;2.20;;;;;;;15.93;79.38;99493.66;232486;214;147635;-60
2023/09/24 02:29:18;;;;;;;5.20;2.10;;;;;;;15.89;79.45;99497.91;232457;214;139604;-60
2023/09/24 02:34:23;;;;;;;4.50;2.20;;;;;;;15.88;79.79;99503.02;232708;213;137308;-58
2023/09/24 02:39:29;;;;;;;4.10;2.10;;;;;;;15.84;80.04;99516.13;232442;213;146564;-61
2023/09/24 02:44:34;;;;;;;5.20;2.40;;;;;;;15.86;80.00;99533.95;232467;214;139248;-60
2023/09/24 02:49:40;;;;;;;4.50;2.60;;;;;;;15.83;80.19;99543.58;232563;213;137446;-61
2023/09/24 02:54:48;;;;;;;2.40;1.90;;;;;;;15.81;80.05;99553.95;232495;214;146769;-60
2023/09/24 02:59:52;;;;;;;2.80;1.90;;;;;;;15.75;80.24;99558.70;232472;214;139533;-59
2023/09/24 03:04:56;;;;;;;4.30;2.50;;;;;;;15.73;80.54;99559.98;232635;214;138384;-59
2023/09/24 03:10:01;;;;;;;5.00;2.20;;;;;;;15.72;80.60;99560.70;232512;214;146422;-59
2023/09/24 03:15:12;;;;;;;6.40;2.70;;;;;;;15.70;80.23;99564.81;232617;214;139406;-62
2023/09/24 03:20:18;;;;;;;3.80;2.50;;;;;;;15.63;80.06;99558.85;232627;214;138465;-62
2023/09/24 03:25:27;;;;;;;3.50;2.30;;;;;;;15.61;80.15;99551.84;232643;214;146304;-59
2023/09/24 03:30:32;;;;;;;2.60;1.80;;;;;;;15.56;80.31;99545.98;232706;214;138675;-60
2023/09/24 03:35:37;;;;;;;4.50;2.30;;;;;;;15.57;80.37;99554.33;232695;215;137790;-61
2023/09/24 03:40:49;;;;;;;5.00;2.60;;;;;;;15.59;79.61;99555.73;232725;214;146517;-61
2023/09/24 03:45:56;;;;;;;3.00;2.10;;;;;;;15.55;79.00;99573.38;232649;213;139541;-60
2023/09/24 03:51:04;;;;;;;7.00;2.50;;;;;;;15.48;78.58;99574.62;232615;214;137702;-58
2023/09/24 03:56:08;;;;;;;4.30;2.10;;;;;;;15.42;78.52;99574.98;232582;214;145780;-59
2023/09/24 04:01:13;;;;;;;;;;;;;;;15.39;78.58;99581.56;232590;214;141611;-59
2023/09/24 04:06:17;;;;;;;2.90;2.10;;;;;;;15.41;78.37;99573.38;232707;214;133427;-60
2023/09/24 04:11:23;;;;;;;3.70;2.40;;;;;;;15.43;78.10;99580.62;232630;215;147737;-59
2023/09/24 04:16:30;;;;;;;4.30;2.30;;;;;;;15.42;78.40;99581.71;232717;214;139291;-60
2023/09/24 04:21:36;;;;;;;2.80;2.20;;;;;;;15.39;78.61;99584.08;232674;214;139590;-60
2023/09/24 04:26:45;;;;;;;3.30;2.00;;;;;;;15.34;78.48;99598.38;232522;214;146249;-58
2023/09/24 04:31:51;;;;;;;4.50;1.80;;;;;;;15.32;78.39;99619.10;232629;214;139964;-57
2023/09/24 04:36:55;;;;;;;3.80;2.10;;;;;;;15.34;78.47;99629.52;232683;214;138202;-60
2023/09/24 04:42:00;;;;;;;2.80;2.10;;;;;;;15.37;78.51;99638.56;232510;214;146477;-56
2023/09/24 04:47:06;;;;;;;2.50;1.80;;;;;;;15.36;78.03;99638.30;232658;214;139522;-57
2023/09/24 04:52:11;;;;;;;;;;;;;;;15.31;77.57;99638.48;232581;214;138145;-60
2023/09/24 04:57:17;;;;;;;4.10;2.00;;;;;;;15.28;77.31;99648.68;232711;215;147301;-58
2023/09/24 05:02:23;;;;;;;2.00;1.40;;;;;;;15.22;77.01;99653.08;232639;214;139218;-58
2023/09/24 05:07:33;;;;;;;4.20;1.80;;;;;;;15.21;77.33;99652.64;232599;214;138725;-60
2023/09/24 05:12:37;;;;;;;2.40;1.60;;;;;;;15.23;77.25;99658.14;232624;215;146292;-59
2023/09/24 05:17:42;;;;;;;2.40;1.70;;;;;;;15.27;77.14;99657.35;232627;214;140979;-61
2023/09/24 05:22:49;;;;;;;2.40;1.50;;;;;;;15.29;76.74;99658.83;232771;214;136954;-57
2023/09/24 05:27:55;;;;;;;2.90;2.00;;;;;;;15.29;76.73;99650.09;232661;214;145938;-58
2023/09/24 05:33:03;;;;;;;;;;;;;;;15.29;77.79;99653.48;232627;214;140291;-59
2023/09/24 05:38:10;;;;;;;4.80;1.80;;;;;;;15.28;78.56;99659.23;232744;214;131295;-60
2023/09/24 05:43:17;;;;;;;3.40;1.50;;;;;;;15.27;79.28;99672.92;232643;214;146201;-60
2023/09/24 05:48:25;;;;;;;2.30;1.50;;;;;;;15.28;78.65;99680.00;232696;214;140756;-60
2023/09/24 05:53:32;;;;;;;2.50;1.50;;;;;;;15.33;78.60;99684.05;232566;214;137492;-59
2023/09/24 05:58:36;;;;;;;;;;;;;;;15.41;78.84;99681.96;232782;215;147579;-61
2023/09/24 06:03:41;;;;;;;2.50;1.60;;;;;;;15.43;78.92;99687.55;232692;214;139729;-59
2023/09/24 06:08:47;;;;;;;2.10;1.50;;;;;;;15.42;79.43;99684.23;232651;215;138368;-61
2023/09/24 06:13:52;;;;;;;;;;;;;;;15.40;79.09;99686.11;232742;214;148387;-59
2023/09/24 06:18:57;;;;;;;3.30;1.50;;;;;;;15.41;79.42;99685.88;232545;214;139560;-60
2023/09/24 06:24:03;;;;;;;5.60;1.60;;;;;;;15.45;78.77;99696.10;232522;214;138131;-57
2023/09/24 06:29:08;;;;;;;4.60;1.80;;;;;;;15.52;78.31;99697.77;232604;214;148956;-59
2023/09/24 06:34:15;;;;;;;3.00;2.00;;;;;;;15.59;77.78;99699.25;232635;214;140003;-60
2023/09/24 06:39:20;;;;;;;;;;;;;;;15.56;77.99;99710.68;232535;213;137274;-56
2023/09/24 06:44:25;;;;;;;3.50;2.20;;;;;;;15.53;77.82;99736.17;232692;214;147719;-57
2023/09/24 06:49:32;;;;;;;4.20;2.10;;;;;;;15.50;78.19;99739.02;232571;214;139237;-58
2023/09/24 06:54:37;;;;;;;2.10;1.50;;;;;;;15.54;77.89;99743.06;232587;214;137863;-58
2023/09/24 06:59:42;;;;;;;3.00;1.80;;;;;;;15.58;78.23;99736.14;232502;214;148127;-57
2023/09/24 07:04:50;;;;;;;2.10;1.70;;;;;;;15.61;77.79;99739.85;232632;214;139901;-57
2023/09/24 07:09:59;;;;;;;3.70;1.90;;;;;;;15.65;77.79;99747.09;232441;214;136824;-59
2023/09/24 07:15:09;;;;;;;3.00;1.90;;;;;;;15.62;78.02;99768.08;232401;214;148052;-61
2023/09/24 07:20:16;;;;;;;2.80;1.80;;;;;;;15.60;78.49;99780.88;232609;214;140780;-59
2023/09/24 07:25:21;;;;;;;5.40;2.20;;;;;;;15.60;78.96;99791.27;232505;214;138118;-58
2023/09/24 07:30:27;;;;;;;2.70;1.80;;;;;;;15.60;78.70;99798.29;232524;214;147599;-60
2023/09/24 07:35:35;;;;;;;4.30;2.00;;;;;;;15.62;78.92;99807.95;232579;214;139775;-58
2023/09/24 07:40:41;;;;;;;4.30;2.30;;;;;;;15.65;79.12;99812.77;232610;214;137879;-59
2023/09/24 07:45:47;;;;;;;3.10;2.20;;;;;;;15.66;79.10;99820.94;232524;214;148495;-60
2023/09/24 07:51:07;;;;;;;2.90;1.90;;;;;;;15.64;78.74;99822.45;232648;214;140286;-58
2023/09/24 07:56:14;;;;;;;3.50;2.00;;;;;;;15.64;79.51;99824.50;232548;214;138924;-62
2023/09/24 08:01:23;;;;;;;3.20;2.10;;;;;;;15.70;79.37;99833.01;232629;214;150085;-60
2023/09/24 08:06:28;;;;;;;;;;;;;;;15.77;78.95;99832.48;232459;214;139915;-59
2023/09/24 08:11:34;;;;;;;3.50;3.20;;;;;;;15.78;78.51;99825.23;232688;214;132981;-59
2023/09/24 08:16:38;;;;;;;2.10;1.80;;;;;;;15.85;79.34;99825.27;232444;214;149691;-59
2023/09/24 08:21:45;;;;;;;3.90;2.30;;;;;;;15.87;79.00;99823.74;232532;214;141373;-59
2023/09/24 08:26:52;;;;;;;3.30;2.30;;;;;;;15.80;78.75;99826.02;232622;214;137407;-58
2023/09/24 08:31:58;;;;;;;4.80;2.30;;;;;;;15.76;78.48;99829.73;232495;214;149249;-58
2023/09/24 08:37:03;;;;;;;3.70;2.10;;;;;;;15.72;77.91;99833.77;232452;214;140184;-57
2023/09/24 08:42:12;;;;;;;7.80;5.30;;;;;;;15.68;78.00;99835.29;232514;214;137019;-58
2023/09/24 08:47:21;;;;;;;4.60;2.60;;;;;;;15.62;77.60;99836.06;232735;214;150247;-56
2023/09/24 08:52:26;;;;;;;2.90;2.40;;;;;;;15.56;77.93;99834.85;232612;214;139559;-60
2023/09/24 08:57:38;;;;;;;2.30;1.80;;;;;;;15.56;78.38;99835.02;232655;214;138265;-60
2023/09/24 09:02:47;;;;;;;3.90;2.50;;;;;;;15.63;78.69;99837.77;232566;214;150220;-60
2023/09/24 09:08:03;;;;;;;3.60;2.50;;;;;;;15.69;79.58;99834.19;232531;214;141133;-60
2023/09/24 09:13:24;;;;;;;3.20;2.40;;;;;;;15.68;78.80;99832.27;232554;214;138013;-54
2023/09/24 09:18:31;;;;;;;3.90;2.60;;;;;;;15.63;78.61;99837.04;232639;214;148491;-59
2023/09/24 09:23:42;;;;;;;2.90;2.60;;;;;;;15.65;78.81;99834.07;232803;214;138110;-60
2023/09/24 09:28:49;;;;;;;3.80;2.30;;;;;;;15.74;79.69;99829.31;232720;214;140764;-58
2023/09/24 09:33:54;;;;;;;5.30;2.80;;;;;;;15.88;79.60;99827.20;232623;214;148408;-59
2023/09/24 09:39:00;;;;;;;3.90;2.60;;;;;;;15.99;78.70;99826.85;232554;214;140450;-60
2023/09/24 09:44:09;;;;;;;8.30;5.20;;;;;;;16.05;78.90;99826.40;232614;213;137414;-57
2023/09/24 09:49:19;;;;;;;3.40;2.70;;;;;;;16.13;78.82;99830.86;232563;214;147935;-60
2023/09/24 09:54:33;;;;;;;4.30;2.40;;;;;;;16.19;79.17;99846.16;232513;214;139349;-59
2023/09/24 09:59:39;;;;;;;4.40;2.40;;;;;;;16.24;78.48;99858.48;232739;214;137783;-59
2023/09/24 10:04:46;;;;;;;4.30;3.20;;;;;;;16.28;77.97;99858.71;232663;214;148412;-57
2023/09/24 10:09:51;;;;;;;3.00;2.70;;;;;;;16.39;78.37;99849.02;232622;214;140293;-57
2023/09/24 10:14:58;;;;;;;3.80;3.10;;;;;;;16.51;78.87;99851.67;232730;212;137657;-61
2023/09/24 10:20:08;;;;;;;5.00;3.00;;;;;;;16.56;78.87;99858.70;232680;214;148200;-59
2023/09/24 10:25:34;;;;;;;3.70;2.50;;;;;;;16.63;78.86;99870.33;232556;214;139892;-60
2023/09/24 10:31:06;;;;;;;4.40;3.00;;;;;;;16.69;78.52;99872.73;232560;214;137640;-60
2023/09/24 10:36:23;;;;;;;7.40;3.10;;;;;;;16.75;78.25;99868.17;232568;213;147944;-60
2023/09/24 10:41:33;;;;;;;4.30;3.00;;;;;;;16.80;78.10;99873.98;232713;214;140320;-58
2023/09/24 10:46:38;;;;;;;4.10;3.30;;;;;;;16.81;76.59;99873.14;232580;214;137713;-59
2023/09/24 10:51:42;;;;;;;3.80;3.40;;;;;;;16.83;77.17;99875.01;232693;215;149174;-59
2023/09/24 10:56:48;;;;;;;7.30;4.90;;;;;;;16.86;77.00;99862.75;232602;214;139644;-59
2023/09/24 11:01:52;;;;;;;;;;;;;;;16.93;76.49;99858.28;232627;213;137763;-61
2023/09/24 11:07:10;;;;;;;47.70;37.30;;;;;;;16.93;76.50;99861.71;232608;214;148193;-59
2023/09/24 11:12:15;;;;;;;5.30;4.10;;;;;;;16.91;77.12;99861.45;232509;214;139284;-62
2023/09/24 11:17:24;;;;;;;142.70;117.10;;;;;;;16.87;77.48;99866.81;232722;214;136569;-59
2023/09/24 11:22:31;;;;;;;7.80;6.90;;;;;;;16.89;77.21;99866.11;232562;214;148076;-60
2023/09/24 11:27:52;;;;;;;4.30;3.10;;;;;;;16.85;77.24;99862.28;232515;214;139748;-62
2023/09/24 11:32:57;;;;;;;4.20;2.80;;;;;;;16.84;77.40;99860.56;232520;214;137816;-61
2023/09/24 11:38:03;;;;;;;5.50;3.00;;;;;;;16.86;77.62;99855.93;232555;214;149019;-57
2023/09/24 11:43:11;;;;;;;3.80;3.10;;;;;;;16.96;78.02;99856.42;232512;214;139488;-57
2023/09/24 11:48:19;;;;;;;3.60;3.00;;;;;;;17.02;77.75;99858.45;232649;214;137233;-58
2023/09/24 11:53:26;;;;;;;3.60;3.20;;;;;;;17.07;77.12;99858.30;232679;213;148457;-58
2023/09/24 11:58:32;;;;;;;2.90;2.60;;;;;;;17.03;76.93;99849.63;232435;214;139910;-58
2023/09/24 12:03:38;;;;;;;105.70;82.20;;;;;;;17.14;77.25;99840.19;232447;214;137132;-60
2023/09/24 12:08:46;;;;;;;7.90;3.30;;;;;;;17.36;76.08;99837.07;232548;214;149546;-61
2023/09/24 12:13:53;;;;;;;3.50;2.80;;;;;;;17.34;75.25;99849.55;232547;214;139248;-60
2023/09/24 12:18:59;;;;;;;3.90;3.10;;;;;;;17.34;74.51;99858.95;232563;214;137039;-59
2023/09/24 12:24:07;;;;;;;5.30;3.00;;;;;;;17.34;74.45;99857.14;232710;214;148487;-59
2023/09/24 12:29:14;;;;;;;5.70;3.00;;;;;;;17.36;74.36;99851.98;232488;214;140941;-59
2023/09/24 12:34:20;;;;;;;3.80;2.80;;;;;;;17.40;73.82;99854.89;232515;214;137862;-58
2023/09/24 12:39:25;;;;;;;3.50;2.80;;;;;;;17.38;73.79;99859.52;232524;214;148904;-59
2023/09/24 12:44:31;;;;;;;5.90;3.60;;;;;;;17.33;73.70;99869.81;232494;214;138909;-58
2023/09/24 12:49:38;;;;;;;;;;;;;;;17.28;73.83;99869.61;232570;214;137864;-58
2023/09/24 12:54:43;;;;;;;5.10;4.50;;;;;;;17.28;74.08;99867.79;232573;214;148159;-58
2023/09/24 12:59:49;;;;;;;3.20;2.50;;;;;;;17.35;73.81;99865.48;232520;214;139962;-58
2023/09/24 13:04:54;;;;;;;4.60;2.80;;;;;;;17.40;73.83;99856.15;232502;214;137874;-60
2023/09/24 13:10:05;;;;;;;14.10;10.90;;;;;;;17.45;73.56;99856.77;232476;214;147853;-58
2023/09/24 13:15:14;;;;;;;5.70;2.90;;;;;;;17.47;73.50;99863.66;232477;214;140097;-59
2023/09/24 13:20:19;;;;;;;4.00;2.70;;;;;;;17.47;73.25;99876.77;232485;214;137371;-61
2023/09/24 13:25:26;;;;;;;5.50;2.70;;;;;;;17.45;73.22;99886.23;232592;214;149298;-60
2023/09/24 13:30:34;;;;;;;84.90;72.00;;;;;;;17.35;73.25;99887.38;232674;214;139296;-61
2023/09/24 13:35:44;;;;;;;13.20;10.20;;;;;;;17.30;74.04;99892.95;232693;214;137495;-60
2023/09/24 13:40:51;;;;;;;59.10;43.30;;;;;;;17.31;74.05;99892.87;232567;214;150522;-56
2023/09/24 13:45:56;;;;;;;3.00;2.70;;;;;;;17.35;73.09;99894.73;232610;215;140539;-59
2023/09/24 13:51:03;;;;;;;5.70;3.30;;;;;;;17.27;72.98;99897.68;232588;214;140738;-57
2023/09/24 13:56:14;;;;;;;2.70;2.00;;;;;;;17.18;72.89;99898.50;232627;214;149284;-60
2023/09/24 14:01:19;;;;;;;4.90;2.20;;;;;;;17.14;72.94;99904.23;232567;211;139978;-56
2023/09/24 14:06:26;;;;;;;2.40;1.90;;;;;;;17.07;73.54;99905.30;232677;214;137541;-59
2023/09/24 14:16:56;;;;;;;7.60;3.90;;;;;;;17.05;74.49;99904.17;232557;215;139425;-58
2023/09/24 14:22:03;;;;;;;2.50;2.20;;;;;;;17.05;74.69;99904.73;232587;214;151105;-58
2023/09/24 14:27:08;;;;;;;3.10;2.20;;;;;;;17.03;74.84;99902.20;232619;215;148276;-59
2023/09/24 14:32:15;;;;;;;2.80;1.80;;;;;;;17.01;75.55;99896.71;232440;214;140007;-61
2023/09/24 14:37:28;;;;;;;29.70;26.40;;;;;;;16.99;76.15;99891.86;232539;214;138056;-62
2023/09/24 14:42:34;;;;;;;4.40;3.40;;;;;;;17.05;77.01;99881.23;232630;214;149762;-61
2023/09/24 14:47:41;;;;;;;3.40;2.60;;;;;;;17.05;77.11;99867.42;232542;214;140518;-56
2023/09/24 14:52:47;;;;;;;3.60;2.40;;;;;;;17.07;77.30;99858.49;232584;214;137420;-57
2023/09/24 14:57:51;;;;;;;4.40;2.40;;;;;;;17.09;77.09;99848.11;232554;214;148334;-57
2023/09/24 15:03:00;;;;;;;4.30;2.60;;;;;;;17.08;76.75;99838.88;232656;215;140697;-57
2023/09/24 15:08:09;;;;;;;3.00;2.20;;;;;;;17.05;76.72;99841.77;232570;214;137388;-57
2023/09/24 15:13:14;;;;;;;4.70;2.00;;;;;;;17.02;76.91;99848.09;232567;214;148212;-56
2023/09/24 15:18:21;;;;;;;;;;;;;;;17.01;77.24;99857.80;232763;215;142074;-56
2023/09/24 15:23:27;;;;;;;4.60;2.50;;;;;;;17.02;77.71;99851.52;232632;214;133413;-56
2023/09/24 15:28:33;;;;;;;129.40;110.20;;;;;;;17.03;77.92;99847.27;232613;215;147771;-57
2023/09/24 15:33:41;;;;;;;21.10;16.20;;;;;;;17.13;77.89;99850.66;232585;214;140463;-58
2023/09/24 15:38:46;;;;;;;4.00;2.80;;;;;;;17.14;77.07;99848.94;232589;214;138111;-58
2023/09/24 15:43:50;;;;;;;3.70;2.60;;;;;;;17.12;77.26;99846.83;232591;214;149407;-58
2023/09/24 15:48:56;;;;;;;98.70;78.00;;;;;;;17.13;76.93;99841.48;232549;214;139461;-60
2023/09/24 15:54:00;;;;;;;5.70;3.10;;;;;;;17.15;76.88;99849.65;232653;214;137809;-58
2023/09/24 15:59:06;;;;;;;;;;;;;;;17.12;76.79;99857.70;232446;214;149427;-56
2023/09/24 16:04:12;;;;;;;2.90;2.30;;;;;;;17.07;76.27;99864.36;232586;214;140247;-57
2023/09/24 16:09:17;;;;;;;2.80;2.10;;;;;;;16.99;77.07;99874.83;232593;214;137462;-56
2023/09/24 16:14:22;;;;;;;5.50;2.20;;;;;;;16.93;77.34;99881.38;232426;214;148736;-57
2023/09/24 16:19:27;;;;;;;6.20;2.20;;;;;;;16.95;77.42;99894.33;232510;214;139315;-56
2023/09/24 16:24:31;;;;;;;3.60;2.50;;;;;;;16.95;77.87;99898.79;232605;214;136765;-58
2023/09/24 16:29:36;;;;;;;2.60;1.90;;;;;;;16.95;78.08;99904.94;232580;214;149797;-58
2023/09/24 16:34:41;;;;;;;2.90;2.10;;;;;;;16.93;78.37;99915.27;232480;214;139532;-58
2023/09/24 16:39:50;;;;;;;2.00;1.80;;;;;;;16.87;78.52;99923.64;232563;214;137929;-59
2023/09/24 16:44:57;;;;;;;3.70;2.30;;;;;;;16.79;78.46;99929.21;232545;210;148109;-60
2023/09/24 16:50:06;;;;;;;3.50;2.40;;;;;;;16.76;78.64;99943.20;232621;214;139909;-58
2023/09/24 16:55:11;;;;;;;3.20;2.30;;;;;;;16.78;78.85;99946.29;232651;214;137698;-59
2023/09/24 17:00:15;;;;;;;2.60;2.30;;;;;;;16.80;78.80;99949.93;232676;214;148845;-59
2023/09/24 17:05:20;;;;;;;3.20;2.40;;;;;;;16.79;78.83;99954.52;232449;214;139678;-57
2023/09/24 17:10:26;;;;;;;2.30;2.10;;;;;;;16.72;79.05;99954.22;232620;214;137809;-58
2023/09/24 17:15:31;;;;;;;2.10;1.90;;;;;;;16.71;79.17;99963.96;232589;214;147612;-61
2023/09/24 17:20:46;;;;;;;115.80;93.60;;;;;;;16.75;79.96;99966.98;232661;214;139769;-53
2023/09/24 17:25:52;;;;;;;8.40;5.60;;;;;;;16.90;79.96;99970.71;232611;214;138262;-59
2023/09/24 17:30:58;;;;;;;4.00;3.10;;;;;;;16.91;79.54;99964.20;232599;214;148623;-59
2023/09/24 17:36:05;;;;;;;4.80;2.90;;;;;;;16.87;79.25;99968.40;232600;214;140237;-58
2023/09/24 17:41:10;;;;;;;5.90;2.60;;;;;;;16.82;79.08;99969.66;232626;215;137829;-60
2023/09/24 17:46:19;;;;;;;5.10;2.20;;;;;;;16.77;79.13;99970.18;232642;214;148337;-59
2023/09/24 17:51:24;;;;;;;4.60;2.50;;;;;;;16.78;79.23;99969.59;232524;214;140232;-60
2023/09/24 17:56:30;;;;;;;3.80;2.30;;;;;;;16.83;78.91;99972.70;232486;214;137698;-59
2023/09/24 18:01:36;;;;;;;2.70;2.10;;;;;;;16.85;78.78;99977.89;232634;214;147606;-60
2023/09/24 18:06:43;;;;;;;220.80;183.80;;;;;;;16.87;78.57;99985.14;232617;214;140231;-62
2023/09/24 18:11:49;;;;;;;;;;;;;;;16.96;78.69;99995.73;232464;214;138711;-60
2023/09/24 18:18:09;;;;;;;4.00;2.40;;;;;;;16.94;78.15;100003.55;231183;225;699970;-57
2023/09/24 18:25:50;;;;;;;2.80;2.00;;;;;;;16.94;77.18;99988.49;231700;221;696585;-59
2023/09/24 18:30:58;;;;;;;2.60;2.20;;;;;;;16.96;76.50;99992.46;232895;216;136374;-59
2023/09/24 18:36:06;;;;;;;3.30;2.30;;;;;;;17.02;75.92;99998.72;232679;215;146319;-60
2023/09/24 18:41:15;;;;;;;3.50;1.90;;;;;;;17.07;76.20;100009.60;232627;215;141994;-60
2023/09/24 18:46:22;;;;;;;3.00;2.00;;;;;;;17.14;76.41;100016.79;232745;215;137003;-58
2023/09/24 18:51:30;;;;;;;5.80;2.20;;;;;;;17.19;76.32;100016.77;232719;216;144735;-61
2023/09/24 18:56:36;;;;;;;2.50;1.90;;;;;;;17.23;75.97;100028.15;232623;215;139730;-60
2023/09/24 19:01:43;;;;;;;3.10;1.80;;;;;;;17.22;76.01;100026.44;232752;216;136503;-62
2023/09/24 19:06:51;;;;;;;3.40;2.10;;;;;;;17.19;76.05;100027.70;232824;215;145191;-59
2023/09/24 19:11:55;;;;;;;4.60;2.30;;;;;;;17.21;75.94;100025.45;232819;216;139348;-61
2023/09/24 19:17:02;;;;;;;3.40;2.30;;;;;;;17.26;75.66;100024.02;232821;216;136888;-58
2023/09/24 19:22:10;;;;;;;5.70;2.50;;;;;;;17.31;75.72;100029.35;232807;215;145371;-62
2023/09/24 19:27:14;;;;;;;3.30;2.20;;;;;;;17.33;75.87;100031.36;232786;216;140490;-59
2023/09/24 19:32:21;;;;;;;3.40;2.30;;;;;;;17.36;75.63;100030.48;232863;216;139990;-56
2023/09/24 19:37:24;;;;;;;2.40;2.10;;;;;;;17.35;75.68;100035.55;233046;216;145753;-58
2023/09/24 19:42:34;;;;;;;5.80;2.40;;;;;;;17.35;75.96;100041.10;233001;216;138614;-58
2023/09/24 19:47:42;;;;;;;5.20;2.40;;;;;;;17.31;76.50;100043.91;232872;216;137015;-58
2023/09/24 19:52:48;;;;;;;5.70;2.30;;;;;;;17.32;76.70;100040.41;234412;216;145704;-59
2023/09/24 19:57:52;;;;;;;2.80;2.30;;;;;;;17.29;76.59;100032.04;234347;216;139800;-63
2023/09/24 20:09:05;;;;;;;6.50;2.40;;;;;;;17.36;76.33;100013.21;231481;223;726469;-59
2023/09/24 20:14:14;;;;;;;5.80;2.60;;;;;;;17.37;75.82;100013.14;232893;215;136989;-59
2023/09/24 20:19:19;;;;;;;4.40;2.50;;;;;;;17.37;75.69;100013.85;233019;216;144444;-60
2023/09/24 20:24:26;;;;;;;4.80;2.70;;;;;;;17.35;75.55;100011.86;232827;216;139635;-62
2023/09/24 20:29:32;;;;;;;6.80;2.50;;;;;;;17.33;75.46;100018.65;232794;215;136751;-60
2023/09/24 20:34:38;;;;;;;3.10;2.10;;;;;;;17.31;75.57;100014.85;232743;215;144816;-55
2023/09/24 20:39:45;;;;;;;5.00;2.50;;;;;;;17.36;75.42;100013.58;232722;216;140166;-61
2023/09/24 20:44:50;;;;;;;3.60;2.20;;;;;;;17.39;75.27;100009.05;232584;216;137038;-60
2023/09/24 20:49:57;;;;;;;3.50;2.30;;;;;;;17.39;75.16;100008.83;232836;216;144334;-58
2023/09/24 20:55:07;;;;;;;5.00;2.20;;;;;;;17.39;75.28;100022.50;232826;216;140402;-54
2023/09/24 21:00:24;;;;;;;4.00;2.10;;;;;;;17.35;75.55;100032.55;232658;215;137845;-60
2023/09/24 21:05:31;;;;;;;6.20;2.00;;;;;;;17.31;75.67;100039.23;232713;216;146196;-58
2023/09/24 21:10:39;;;;;;;2.40;2.20;;;;;;;17.35;76.11;100038.06;232762;216;139559;-60
2023/09/24 21:15:44;;;;;;;5.80;2.40;;;;;;;17.36;75.88;100033.66;232768;216;138656;-60
2023/09/24 21:20:53;;;;;;;4.60;2.30;;;;;;;17.34;75.95;100035.77;232709;216;146017;-58
2023/09/24 21:26:05;;;;;;;2.90;2.20;;;;;;;17.31;76.35;100042.80;232889;216;140736;-58
2023/09/24 21:31:11;;;;;;;2.60;2.10;;;;;;;17.28;76.55;100032.85;233036;217;137075;-60
2023/09/24 21:36:17;;;;;;;5.40;2.70;;;;;;;17.26;76.39;100027.55;232629;215;147401;-58
2023/09/24 21:41:24;;;;;;;3.40;2.60;;;;;;;17.24;76.23;100025.56;232680;215;139208;-59
2023/09/24 21:46:31;;;;;;;3.70;2.80;;;;;;;17.29;76.41;100027.20;232601;215;137577;-58
2023/09/24 21:51:37;;;;;;;5.00;2.10;;;;;;;17.30;76.36;100034.27;234496;215;145090;-60
2023/09/24 21:56:43;;;;;;;4.20;2.10;;;;;;;17.28;76.30;100051.84;234366;215;140168;-61
2023/09/24 22:01:53;;;;;;;4.00;1.90;;;;;;;17.29;75.51;100067.42;234582;215;137281;-61
2023/09/24 22:10:28;;;;;;;4.70;2.30;;;;;;;17.44;75.41;100056.56;231353;221;723934;-60
2023/09/24 22:15:35;;;;;;;6.00;2.00;;;;;;;17.44;75.07;100053.16;232836;215;137440;-60
2023/09/24 22:20:40;;;;;;;6.00;2.40;;;;;;;17.42;75.51;100053.46;232374;214;144726;-58
2023/09/24 22:25:45;;;;;;;3.20;2.20;;;;;;;17.48;75.68;100042.80;232725;214;139233;-58
2023/09/24 22:30:52;;;;;;;4.30;2.40;;;;;;;17.46;75.47;100053.04;232616;214;141199;-60
2023/09/24 22:36:03;;;;;;;3.90;2.10;;;;;;;17.43;75.74;100056.48;232632;214;144175;-58
2023/09/24 22:41:08;;;;;;;5.40;2.90;;;;;;;17.43;75.93;100052.36;232634;214;141420;-59
2023/09/24 22:46:14;;;;;;;4.70;2.40;;;;;;;17.42;75.46;100045.58;232566;215;136643;-60
2023/09/24 22:51:21;;;;;;;3.70;2.30;;;;;;;17.42;75.21;100040.91;232495;214;144197;-56
2023/09/24 22:56:27;;;;;;;3.40;2.20;;;;;;;17.42;75.00;100035.55;232459;214;139840;-58
2023/09/24 23:01:34;;;;;;;3.50;1.80;;;;;;;17.45;74.32;100030.80;232623;214;137482;-62
2023/09/24 23:06:38;;;;;;;3.80;1.80;;;;;;;17.48;74.40;100038.83;232548;214;145628;-60
2023/09/24 23:11:44;;;;;;;3.70;2.00;;;;;;;17.49;74.57;100038.08;232604;214;140425;-61
2023/09/24 23:16:50;;;;;;;3.60;2.00;;;;;;;17.47;74.52;100034.61;232600;214;137758;-62
2023/09/24 23:21:55;;;;;;;4.30;2.30;;;;;;;17.43;74.33;100032.60;232667;215;146518;-60
2023/09/24 23:27:04;;;;;;;5.10;2.70;;;;;;;17.39;74.54;100029.13;232619;215;139672;-61
2023/09/24 23:32:10;;;;;;;3.30;2.30;;;;;;;17.39;74.64;100016.54;232658;215;138259;-58
2023/09/24 23:37:16;;;;;;;4.50;2.40;;;;;;;17.44;74.39;100015.28;232574;214;145435;-61
2023/09/24 23:42:23;;;;;;;6.30;2.70;;;;;;;17.48;73.94;100023.08;232689;215;139738;-59
2023/09/24 23:47:29;;;;;;;4.50;3.10;;;;;;;17.48;73.90;100024.13;232650;215;137883;-59
2023/09/24 23:52:37;;;;;;;5.60;2.80;;;;;;;17.46;73.73;100025.36;232527;215;145970;-59
2023/09/24 23:57:47;;;;;;;3.90;2.50;;;;;;;17.46;73.70;100029.13;232491;214;140564;-58
